PWSweather.com
Personal Weather Stations
Station Observations
KMAMEDFI2
Medfield, MA 02052

Medfield, MA 02052

Lat: 42.1900822, Lon: -71.3296889

Elevation: 138

Station Type: Rainwise WS MK-III

http://www.medfieldweather.com

High Low Average
Temperature 35.2°F1.8°C 20.4°F-6.4°C 27.4°F-2.6°C
Dew Point 21.3°F-5.9°C 9.4°F-12.6°C 16.2°F-8.8°C
Winds 5.8 mph 9.3 kmh Calm Calm 2.0 mph SSW3.2 kmh SSW
Wind Gusts 9.2 mph14.8 kmh -- 3.0 mph4.8 kmh
Humidity 87% 35% 64%
Pressure 30.78 in1042.3 mb 30.52 in1033.5 mb -
Precipitation 0.00 in0.0 mm - -
Hour Temp Dew Point Humidity Winds Wind Gusts Pressure Precip Precip Rate Daily Precip Total
12:00 AM 27.7°F-2.4°C 22.9°F-5.1°C 82% 2.3 mph NW3.7 kmh NW 2.3 mph3.7 kmh 30.53 in1033.9 mb - 0.00 in0.0 mm 0.01 in0.3 mm
12:10 AM 27.2°F-2.7°C 23.8°F-4.6°C 87% Calm Calm -- 30.54 in1034.2 mb - 0.00 in0.0 mm 0.01 in0.3 mm
12:20 AM 26.4°F-3.1°C 23.8°F-4.6°C 90% Calm Calm -- 30.55 in1034.5 mb - 0.00 in0.0 mm 0.01 in0.3 mm
12:30 AM 26.6°F-3.0°C 22.7°F-5.2°C 85% Calm Calm -- 30.54 in1034.2 mb - 0.00 in0.0 mm 0.01 in0.3 mm
12:40 AM 26.9°F-2.8°C 22.1°F-5.5°C 82% Calm Calm 2.3 mph3.7 kmh 30.55 in1034.5 mb - 0.00 in0.0 mm 0.01 in0.3 mm
12:50 AM 26.9°F-2.8°C 22.4°F-5.3°C 83% 1.2 mph WSW1.9 kmh WSW 1.2 mph1.9 kmh 30.55 in1034.5 mb - 0.00 in0.0 mm 0.01 in0.3 mm
01:00 AM 28.2°F-2.1°C 21.3°F-5.9°C 75% 3.5 mph NW5.6 kmh NW 3.5 mph5.6 kmh 30.55 in1034.5 mb - 0.00 in0.0 mm 0.00 in0.0 mm
01:10 AM 28.3°F-2.1°C 21.1°F-6.1°C 74% 2.3 mph W3.7 kmh W 3.5 mph5.6 kmh 30.56 in1034.9 mb - 0.00 in0.0 mm 0.00 in0.0 mm
01:20 AM 28.1°F-2.2°C 21.2°F-6.0°C 75% 1.2 mph W1.9 kmh W 5.8 mph9.3 kmh 30.56 in1034.9 mb - 0.00 in0.0 mm 0.00 in0.0 mm
01:30 AM 27.9°F-2.3°C 21.3°F-5.9°C 76% 3.5 mph NW5.6 kmh NW 6.9 mph11.1 kmh 30.56 in1034.9 mb - 0.00 in0.0 mm 0.00 in0.0 mm
01:40 AM 27.5°F-2.5°C 20.3°F-6.5°C 74% 3.5 mph NW5.6 kmh NW 3.5 mph5.6 kmh 30.58 in1035.6 mb - 0.00 in0.0 mm 0.00 in0.0 mm
01:50 AM 27.7°F-2.4°C 19.8°F-6.8°C 72% 4.6 mph W7.4 kmh W 8.1 mph13.0 kmh 30.58 in1035.6 mb - 0.00 in0.0 mm 0.00 in0.0 mm
02:00 AM 27.5°F-2.5°C 19.6°F-6.9°C 72% 2.3 mph NW3.7 kmh NW 2.3 mph3.7 kmh 30.59 in1035.9 mb - 0.00 in0.0 mm 0.00 in0.0 mm
02:10 AM 27.3°F-2.6°C 19.4°F-7.0°C 72% 2.3 mph W3.7 kmh W 2.3 mph3.7 kmh 30.59 in1035.9 mb - 0.00 in0.0 mm 0.00 in0.0 mm
02:20 AM 27.3°F-2.6°C 19.4°F-7.0°C 72% 1.2 mph N1.9 kmh N 2.3 mph3.7 kmh 30.59 in1035.9 mb - 0.00 in0.0 mm 0.00 in0.0 mm
02:30 AM 26.9°F-2.8°C 19.1°F-7.2°C 72% 1.2 mph WSW1.9 kmh WSW 2.3 mph3.7 kmh 30.59 in1035.9 mb - 0.00 in0.0 mm 0.00 in0.0 mm
02:40 AM 26.6°F-3.0°C 18.8°F-7.3°C 72% 1.2 mph NW1.9 kmh NW 1.2 mph1.9 kmh 30.60 in1036.2 mb - 0.00 in0.0 mm 0.00 in0.0 mm
02:50 AM 26.6°F-3.0°C 18.8°F-7.3°C 72% 1.2 mph WNW1.9 kmh WNW 1.2 mph1.9 kmh 30.60 in1036.2 mb - 0.00 in0.0 mm 0.00 in0.0 mm
03:00 AM 26.3°F-3.2°C 18.8°F-7.3°C 73% 1.2 mph W1.9 kmh W 1.2 mph1.9 kmh 30.61 in1036.6 mb - 0.00 in0.0 mm 0.00 in0.0 mm
03:10 AM 25.9°F-3.4°C 18.4°F-7.6°C 73% 2.3 mph WNW3.7 kmh WNW 2.3 mph3.7 kmh 30.62 in1036.9 mb - 0.00 in0.0 mm 0.00 in0.0 mm
03:20 AM 25.7°F-3.5°C 18.2°F-7.7°C 73% 2.3 mph WNW3.7 kmh WNW 2.3 mph3.7 kmh 30.62 in1036.9 mb - 0.00 in0.0 mm 0.00 in0.0 mm
03:30 AM 25.6°F-3.6°C 18.1°F-7.7°C 73% 2.3 mph W3.7 kmh W 2.3 mph3.7 kmh 30.62 in1036.9 mb - 0.00 in0.0 mm 0.00 in0.0 mm
03:40 AM 25.5°F-3.6°C 18.3°F-7.6°C 74% 2.3 mph W3.7 kmh W 2.3 mph3.7 kmh 30.63 in1037.3 mb - 0.00 in0.0 mm 0.00 in0.0 mm
03:50 AM 25.2°F-3.8°C 18.4°F-7.6°C 75% 1.2 mph WSW1.9 kmh WSW 2.3 mph3.7 kmh 30.63 in1037.3 mb - 0.00 in0.0 mm 0.00 in0.0 mm
04:00 AM 24.9°F-3.9°C 17.4°F-8.1°C 73% 2.3 mph WSW3.7 kmh WSW 2.3 mph3.7 kmh 30.63 in1037.3 mb - 0.00 in0.0 mm 0.00 in0.0 mm
04:10 AM 25.0°F-3.9°C 17.9°F-7.8°C 74% 2.3 mph NW3.7 kmh NW 2.3 mph3.7 kmh 30.64 in1037.6 mb - 0.00 in0.0 mm 0.00 in0.0 mm
04:20 AM 24.9°F-3.9°C 17.4°F-8.1°C 73% Calm Calm 1.2 mph1.9 kmh 30.64 in1037.6 mb - 0.00 in0.0 mm 0.00 in0.0 mm
04:30 AM 24.7°F-4.1°C 17.5°F-8.1°C 74% 2.3 mph WSW3.7 kmh WSW 2.3 mph3.7 kmh 30.64 in1037.6 mb - 0.00 in0.0 mm 0.00 in0.0 mm
04:40 AM 24.4°F-4.2°C 17.3°F-8.2°C 74% 1.2 mph WSW1.9 kmh WSW 2.3 mph3.7 kmh 30.65 in1037.9 mb - 0.00 in0.0 mm 0.00 in0.0 mm
04:50 AM 24.3°F-4.3°C 17.2°F-8.2°C 74% 2.3 mph W3.7 kmh W 2.3 mph3.7 kmh 30.65 in1037.9 mb - 0.00 in0.0 mm 0.00 in0.0 mm
05:00 AM 24.1°F-4.4°C 17.3°F-8.2°C 75% 2.3 mph NW3.7 kmh NW 2.3 mph3.7 kmh 30.66 in1038.3 mb - 0.00 in0.0 mm 0.00 in0.0 mm
05:10 AM 23.6°F-4.7°C 17.8°F-7.9°C 78% 2.3 mph WSW3.7 kmh WSW 2.3 mph3.7 kmh 30.66 in1038.3 mb - 0.00 in0.0 mm 0.00 in0.0 mm
05:20 AM 23.3°F-4.8°C 17.4°F-8.1°C 78% 2.3 mph WSW3.7 kmh WSW 2.3 mph3.7 kmh 30.66 in1038.3 mb - 0.00 in0.0 mm 0.00 in0.0 mm
05:30 AM 22.9°F-5.1°C 17.3°F-8.2°C 79% Calm Calm -- 30.66 in1038.3 mb - 0.00 in0.0 mm 0.00 in0.0 mm
05:40 AM 22.1°F-5.5°C 17.7°F-7.9°C 83% Calm Calm 1.2 mph1.9 kmh 30.67 in1038.6 mb - 0.00 in0.0 mm 0.00 in0.0 mm
05:50 AM 21.8°F-5.7°C 18.0°F-7.8°C 85% 2.3 mph WSW3.7 kmh WSW 2.3 mph3.7 kmh 30.68 in1038.9 mb - 0.00 in0.0 mm 0.00 in0.0 mm
06:00 AM 21.7°F-5.7°C 17.6°F-8.0°C 84% 2.3 mph WSW3.7 kmh WSW 2.3 mph3.7 kmh 30.68 in1038.9 mb - 0.00 in0.0 mm 0.00 in0.0 mm
06:10 AM 21.8°F-5.7°C 17.5°F-8.1°C 83% Calm Calm 1.2 mph1.9 kmh 30.68 in1038.9 mb - 0.00 in0.0 mm 0.00 in0.0 mm
06:20 AM 22.0°F-5.6°C 17.1°F-8.3°C 81% 2.3 mph WSW3.7 kmh WSW 2.3 mph3.7 kmh 30.69 in1039.3 mb - 0.00 in0.0 mm 0.00 in0.0 mm
06:30 AM 22.0°F-5.6°C 16.7°F-8.5°C 80% 1.2 mph WSW1.9 kmh WSW 2.3 mph3.7 kmh 30.69 in1039.3 mb - 0.00 in0.0 mm 0.00 in0.0 mm
06:40 AM 21.4°F-5.9°C 16.7°F-8.5°C 82% Calm Calm -- 30.69 in1039.3 mb - 0.00 in0.0 mm 0.00 in0.0 mm
06:50 AM 20.8°F-6.2°C 17.0°F-8.3°C 85% 1.2 mph W1.9 kmh W 2.3 mph3.7 kmh 30.69 in1039.3 mb - 0.00 in0.0 mm 0.00 in0.0 mm
07:00 AM 20.4°F-6.4°C 17.1°F-8.3°C 87% 1.2 mph W1.9 kmh W 2.3 mph3.7 kmh 30.70 in1039.6 mb - 0.00 in0.0 mm 0.00 in0.0 mm
07:10 AM 20.7°F-6.3°C 17.2°F-8.2°C 86% 2.3 mph W3.7 kmh W 2.3 mph3.7 kmh 30.70 in1039.6 mb - 0.00 in0.0 mm 0.00 in0.0 mm
07:20 AM 21.3°F-5.9°C 17.2°F-8.2°C 84% 2.3 mph WSW3.7 kmh WSW 2.3 mph3.7 kmh 30.70 in1039.6 mb - 0.00 in0.0 mm 0.00 in0.0 mm
07:30 AM 21.5°F-5.8°C 16.5°F-8.6°C 81% 2.3 mph NW3.7 kmh NW 5.8 mph9.3 kmh 30.70 in1039.6 mb - 0.00 in0.0 mm 0.00 in0.0 mm
07:40 AM 21.4°F-5.9°C 16.2°F-8.8°C 80% 3.5 mph SE5.6 kmh SE 2.3 mph3.7 kmh 30.70 in1039.6 mb - 0.00 in0.0 mm 0.00 in0.0 mm
07:50 AM 21.7°F-5.7°C 16.2°F-8.8°C 79% 2.3 mph W3.7 kmh W 3.5 mph5.6 kmh 30.71 in1040.0 mb - 0.00 in0.0 mm 0.00 in0.0 mm
08:00 AM 21.6°F-5.8°C 16.3°F-8.7°C 80% Calm Calm 1.2 mph1.9 kmh 30.73 in1040.6 mb - 0.00 in0.0 mm 0.00 in0.0 mm
08:10 AM 21.7°F-5.7°C 15.6°F-9.1°C 77% 3.5 mph NNW5.6 kmh NNW 8.1 mph13.0 kmh 30.73 in1040.6 mb - 0.00 in0.0 mm 0.00 in0.0 mm
08:20 AM 22.0°F-5.6°C 15.9°F-8.9°C 77% 2.3 mph WSW3.7 kmh WSW 5.8 mph9.3 kmh 30.73 in1040.6 mb - 0.00 in0.0 mm 0.00 in0.0 mm
08:30 AM 22.5°F-5.3°C 16.0°F-8.9°C 76% 2.3 mph W3.7 kmh W 2.3 mph3.7 kmh 30.73 in1040.6 mb - 0.00 in0.0 mm 0.00 in0.0 mm
08:40 AM 22.8°F-5.1°C 15.5°F-9.2°C 73% 2.3 mph N3.7 kmh N 2.3 mph3.7 kmh 30.73 in1040.6 mb - 0.00 in0.0 mm 0.00 in0.0 mm
08:50 AM 23.2°F-4.9°C 15.8°F-9.0°C 73% 2.3 mph SW3.7 kmh SW 6.9 mph11.1 kmh 30.74 in1041.0 mb - 0.00 in0.0 mm 0.00 in0.0 mm
09:00 AM 23.4°F-4.8°C 15.1°F-9.4°C 70% 2.3 mph W3.7 kmh W 3.5 mph5.6 kmh 30.75 in1041.3 mb - 0.00 in0.0 mm 0.00 in0.0 mm
09:10 AM 23.8°F-4.6°C 15.1°F-9.4°C 69% 3.5 mph NNE5.6 kmh NNE 3.5 mph5.6 kmh 30.75 in1041.3 mb - 0.00 in0.0 mm 0.00 in0.0 mm
09:20 AM 24.5°F-4.2°C 14.4°F-9.8°C 65% 4.6 mph WNW7.4 kmh WNW 8.1 mph13.0 kmh 30.76 in1041.7 mb - 0.00 in0.0 mm 0.00 in0.0 mm
09:30 AM 24.7°F-4.1°C 15.0°F-9.4°C 66% 2.3 mph W3.7 kmh W 6.9 mph11.1 kmh 30.77 in1042.0 mb - 0.00 in0.0 mm 0.00 in0.0 mm
09:40 AM 25.2°F-3.8°C 15.8°F-9.0°C 67% 2.3 mph ENE3.7 kmh ENE 2.3 mph3.7 kmh 30.76 in1041.7 mb - 0.00 in0.0 mm 0.00 in0.0 mm
09:50 AM 25.0°F-3.9°C 14.9°F-9.5°C 65% 3.5 mph SW5.6 kmh SW 2.3 mph3.7 kmh 30.77 in1042.0 mb - 0.00 in0.0 mm 0.00 in0.0 mm
10:00 AM 25.2°F-3.8°C 15.4°F-9.2°C 66% 4.6 mph NW7.4 kmh NW 5.8 mph9.3 kmh 30.78 in1042.3 mb - 0.00 in0.0 mm 0.00 in0.0 mm
10:10 AM 25.6°F-3.6°C 15.8°F-9.0°C 66% 4.6 mph E7.4 kmh E 5.8 mph9.3 kmh 30.78 in1042.3 mb - 0.00 in0.0 mm 0.00 in0.0 mm
10:20 AM 25.8°F-3.4°C 14.9°F-9.5°C 63% 5.8 mph WSW9.3 kmh WSW 9.2 mph14.8 kmh 30.78 in1042.3 mb - 0.00 in0.0 mm 0.00 in0.0 mm
10:30 AM 25.8°F-3.4°C 13.9°F-10.1°C 60% 2.3 mph E3.7 kmh E 5.8 mph9.3 kmh 30.78 in1042.3 mb - 0.00 in0.0 mm 0.00 in0.0 mm
10:40 AM 26.0°F-3.3°C 14.8°F-9.6°C 62% 2.3 mph 3.7 kmh 2.3 mph3.7 kmh 30.78 in1042.3 mb - 0.00 in0.0 mm 0.00 in0.0 mm
10:50 AM 26.6°F-3.0°C 14.2°F-9.9°C 59% 1.2 mph WSW1.9 kmh WSW 3.5 mph5.6 kmh 30.77 in1042.0 mb - 0.00 in0.0 mm 0.00 in0.0 mm
11:00 AM 27.3°F-2.6°C 14.4°F-9.8°C 58% 3.5 mph E5.6 kmh E 3.5 mph5.6 kmh 30.78 in1042.3 mb - 0.00 in0.0 mm 0.00 in0.0 mm
11:10 AM 27.6°F-2.4°C 14.3°F-9.8°C 57% 2.3 mph N3.7 kmh N 5.8 mph9.3 kmh 30.77 in1042.0 mb - 0.00 in0.0 mm 0.00 in0.0 mm
11:20 AM 28.3°F-2.1°C 15.0°F-9.4°C 57% 3.5 mph NE5.6 kmh NE 2.3 mph3.7 kmh 30.77 in1042.0 mb - 0.00 in0.0 mm 0.00 in0.0 mm
11:30 AM 29.0°F-1.7°C 16.1°F-8.8°C 58% 2.3 mph ENE3.7 kmh ENE 5.8 mph9.3 kmh 30.77 in1042.0 mb - 0.00 in0.0 mm 0.00 in0.0 mm
11:40 AM 29.1°F-1.6°C 14.9°F-9.5°C 55% 3.5 mph SE5.6 kmh SE 9.2 mph14.8 kmh 30.77 in1042.0 mb - 0.00 in0.0 mm 0.00 in0.0 mm
11:50 AM 29.4°F-1.4°C 14.3°F-9.8°C 53% 2.3 mph NNW3.7 kmh NNW 2.3 mph3.7 kmh 30.77 in1042.0 mb - 0.00 in0.0 mm 0.00 in0.0 mm
12:00 PM 30.0°F-1.1°C 15.4°F-9.2°C 54% 2.3 mph W3.7 kmh W 5.8 mph9.3 kmh 30.77 in1042.0 mb - 0.00 in0.0 mm 0.00 in0.0 mm
12:10 PM 30.7°F-0.7°C 14.7°F-9.6°C 51% 4.6 mph W7.4 kmh W 5.8 mph9.3 kmh 30.77 in1042.0 mb - 0.00 in0.0 mm 0.00 in0.0 mm
12:20 PM 31.0°F-0.6°C 15.4°F-9.2°C 52% 2.3 mph S3.7 kmh S 2.3 mph3.7 kmh 30.77 in1042.0 mb - 0.00 in0.0 mm 0.00 in0.0 mm
12:30 PM 31.2°F-0.4°C 15.1°F-9.4°C 51% 3.5 mph ESE5.6 kmh ESE 5.8 mph9.3 kmh 30.77 in1042.0 mb - 0.00 in0.0 mm 0.00 in0.0 mm
12:40 PM 31.5°F-0.3°C 14.5°F-9.7°C 49% 2.3 mph NNE3.7 kmh NNE 2.3 mph3.7 kmh 30.77 in1042.0 mb - 0.00 in0.0 mm 0.00 in0.0 mm
12:50 PM 31.2°F-0.4°C 12.8°F-10.7°C 46% 2.3 mph ENE3.7 kmh ENE 5.8 mph9.3 kmh 30.76 in1041.7 mb - 0.00 in0.0 mm 0.00 in0.0 mm
01:00 PM 31.9°F-0.1°C 11.9°F-11.2°C 43% 5.8 mph S9.3 kmh S 6.9 mph11.1 kmh 30.76 in1041.7 mb - 0.00 in0.0 mm 0.00 in0.0 mm
01:10 PM 31.8°F-0.1°C 12.3°F-10.9°C 44% 3.5 mph ENE5.6 kmh ENE 5.8 mph9.3 kmh 30.75 in1041.3 mb - 0.00 in0.0 mm 0.00 in0.0 mm
01:20 PM 32.0°F0.0°C 12.5°F-10.8°C 44% 2.3 mph S3.7 kmh S 2.3 mph3.7 kmh 30.75 in1041.3 mb - 0.00 in0.0 mm 0.00 in0.0 mm
01:30 PM 32.8°F0.4°C 13.2°F-10.4°C 44% 5.8 mph E9.3 kmh E 5.8 mph9.3 kmh 30.74 in1041.0 mb - 0.00 in0.0 mm 0.00 in0.0 mm
01:40 PM 33.4°F0.8°C 13.2°F-10.4°C 43% 2.3 mph E3.7 kmh E 3.5 mph5.6 kmh 30.75 in1041.3 mb - 0.00 in0.0 mm 0.00 in0.0 mm
01:50 PM 34.2°F1.2°C 14.5°F-9.7°C 44% 1.2 mph SSE1.9 kmh SSE 2.3 mph3.7 kmh 30.74 in1041.0 mb - 0.00 in0.0 mm 0.00 in0.0 mm
02:00 PM 35.2°F1.8°C 14.4°F-9.8°C 42% 1.2 mph N1.9 kmh N 2.3 mph3.7 kmh 30.74 in1041.0 mb - 0.00 in0.0 mm 0.00 in0.0 mm
02:10 PM 34.9°F1.6°C 13.0°F-10.6°C 40% 2.3 mph N3.7 kmh N 2.3 mph3.7 kmh 30.74 in1041.0 mb - 0.00 in0.0 mm 0.00 in0.0 mm
02:20 PM 35.0°F1.7°C 12.5°F-10.8°C 39% Calm Calm -- 30.73 in1040.6 mb - 0.00 in0.0 mm 0.00 in0.0 mm
02:30 PM 35.1°F1.7°C 12.0°F-11.1°C 38% 4.6 mph NE7.4 kmh NE 5.8 mph9.3 kmh 30.73 in1040.6 mb - 0.00 in0.0 mm 0.00 in0.0 mm
02:40 PM 34.7°F1.5°C 11.6°F-11.3°C 38% 2.3 mph SSW3.7 kmh SSW 2.3 mph3.7 kmh 30.73 in1040.6 mb - 0.00 in0.0 mm 0.00 in0.0 mm
02:50 PM 34.3°F1.3°C 10.7°F-11.8°C 37% 1.2 mph NW1.9 kmh NW 2.3 mph3.7 kmh 30.73 in1040.6 mb - 0.00 in0.0 mm 0.00 in0.0 mm
03:00 PM 34.7°F1.5°C 10.4°F-12.0°C 36% 2.3 mph S3.7 kmh S 2.3 mph3.7 kmh 30.73 in1040.6 mb - 0.00 in0.0 mm 0.00 in0.0 mm
03:10 PM 35.0°F1.7°C 11.3°F-11.5°C 37% 1.2 mph ESE1.9 kmh ESE 2.3 mph3.7 kmh 30.72 in1040.3 mb - 0.00 in0.0 mm 0.00 in0.0 mm
03:20 PM 34.4°F1.3°C 9.5°F-12.5°C 35% 2.3 mph NNE3.7 kmh NNE 1.2 mph1.9 kmh 30.72 in1040.3 mb - 0.00 in0.0 mm 0.00 in0.0 mm
03:30 PM 34.9°F1.6°C 10.0°F-12.2°C 35% 2.3 mph SSE3.7 kmh SSE 2.3 mph3.7 kmh 30.72 in1040.3 mb - 0.00 in0.0 mm 0.00 in0.0 mm
03:40 PM 34.4°F1.3°C 10.8°F-11.8°C 37% 2.3 mph SE3.7 kmh SE 2.3 mph3.7 kmh 30.72 in1040.3 mb - 0.00 in0.0 mm 0.00 in0.0 mm
03:50 PM 34.4°F1.3°C 10.2°F-12.1°C 36% 2.3 mph ESE3.7 kmh ESE 2.3 mph3.7 kmh 30.71 in1040.0 mb - 0.00 in0.0 mm 0.00 in0.0 mm
04:00 PM 34.0°F1.1°C 11.0°F-11.7°C 38% 1.2 mph E1.9 kmh E 2.3 mph3.7 kmh 30.71 in1040.0 mb - 0.00 in0.0 mm 0.00 in0.0 mm
04:10 PM 33.9°F1.1°C 10.3°F-12.1°C 37% 1.2 mph S1.9 kmh S 1.2 mph1.9 kmh 30.71 in1040.0 mb - 0.00 in0.0 mm 0.00 in0.0 mm
04:20 PM 33.3°F0.7°C 10.4°F-12.0°C 38% 2.3 mph ESE3.7 kmh ESE 2.3 mph3.7 kmh 30.70 in1039.6 mb - 0.00 in0.0 mm 0.00 in0.0 mm
04:30 PM 32.8°F0.4°C 9.4°F-12.6°C 37% Calm Calm 2.3 mph3.7 kmh 30.70 in1039.6 mb - 0.00 in0.0 mm 0.00 in0.0 mm
04:40 PM 32.6°F0.3°C 9.8°F-12.3°C 38% Calm Calm -- 30.69 in1039.3 mb - 0.00 in0.0 mm 0.00 in0.0 mm
04:50 PM 33.0°F0.6°C 10.7°F-11.8°C 39% 1.2 mph E1.9 kmh E 2.3 mph3.7 kmh 30.69 in1039.3 mb - 0.00 in0.0 mm 0.00 in0.0 mm
05:00 PM 33.2°F0.7°C 9.7°F-12.4°C 37% 2.3 mph ENE3.7 kmh ENE 2.3 mph3.7 kmh 30.69 in1039.3 mb - 0.00 in0.0 mm 0.00 in0.0 mm
05:10 PM 33.1°F0.6°C 9.6°F-12.4°C 37% 1.2 mph NE1.9 kmh NE 2.3 mph3.7 kmh 30.68 in1038.9 mb - 0.00 in0.0 mm 0.00 in0.0 mm
05:20 PM 32.6°F0.3°C 9.8°F-12.3°C 38% 1.2 mph NE1.9 kmh NE 2.3 mph3.7 kmh 30.69 in1039.3 mb - 0.00 in0.0 mm 0.00 in0.0 mm
05:30 PM 32.1°F0.1°C 12.1°F-11.1°C 43% Calm Calm -- 30.69 in1039.3 mb - 0.00 in0.0 mm 0.00 in0.0 mm
05:40 PM 31.5°F-0.3°C 11.6°F-11.3°C 43% Calm Calm -- 30.68 in1038.9 mb - 0.00 in0.0 mm 0.00 in0.0 mm
05:50 PM 30.9°F-0.6°C 10.5°F-11.9°C 42% Calm Calm -- 30.67 in1038.6 mb - 0.00 in0.0 mm 0.00 in0.0 mm
06:00 PM 30.3°F-0.9°C 13.9°F-10.1°C 50% Calm Calm -- 30.67 in1038.6 mb - 0.00 in0.0 mm 0.00 in0.0 mm
06:10 PM 29.5°F-1.4°C 15.3°F-9.3°C 55% Calm Calm -- 30.67 in1038.6 mb - 0.00 in0.0 mm 0.00 in0.0 mm
06:20 PM 28.9°F-1.7°C 14.3°F-9.8°C 54% Calm Calm -- 30.66 in1038.3 mb - 0.00 in0.0 mm 0.00 in0.0 mm
06:30 PM 27.9°F-2.3°C 14.6°F-9.7°C 57% Calm Calm -- 30.66 in1038.3 mb - 0.00 in0.0 mm 0.00 in0.0 mm
06:40 PM 27.3°F-2.6°C 13.7°F-10.2°C 56% Calm Calm -- 30.67 in1038.6 mb - 0.00 in0.0 mm 0.00 in0.0 mm
06:50 PM 27.4°F-2.6°C 13.3°F-10.4°C 55% Calm Calm -- 30.67 in1038.6 mb - 0.00 in0.0 mm 0.00 in0.0 mm
07:00 PM 27.8°F-2.3°C 14.5°F-9.7°C 57% Calm Calm -- 30.67 in1038.6 mb - 0.00 in0.0 mm 0.00 in0.0 mm
07:10 PM 27.6°F-2.4°C 15.5°F-9.2°C 60% 2.3 mph SSE3.7 kmh SSE 2.3 mph3.7 kmh 30.66 in1038.3 mb - 0.00 in0.0 mm 0.00 in0.0 mm
07:20 PM 28.8°F-1.8°C 18.5°F-7.5°C 65% 1.2 mph SE1.9 kmh SE 2.3 mph3.7 kmh 30.66 in1038.3 mb - 0.00 in0.0 mm 0.00 in0.0 mm
07:30 PM 29.1°F-1.6°C 18.4°F-7.6°C 64% 4.6 mph SE7.4 kmh SE 5.8 mph9.3 kmh 30.66 in1038.3 mb - 0.00 in0.0 mm 0.00 in0.0 mm
07:40 PM 29.0°F-1.7°C 18.7°F-7.4°C 65% 1.2 mph S1.9 kmh S 2.3 mph3.7 kmh 30.66 in1038.3 mb - 0.00 in0.0 mm 0.00 in0.0 mm
07:50 PM 28.9°F-1.7°C 18.6°F-7.4°C 65% 2.3 mph S3.7 kmh S 2.3 mph3.7 kmh 30.66 in1038.3 mb - 0.00 in0.0 mm 0.00 in0.0 mm
08:00 PM 28.5°F-1.9°C 18.9°F-7.3°C 67% 2.3 mph SE3.7 kmh SE 2.3 mph3.7 kmh 30.65 in1037.9 mb - 0.00 in0.0 mm 0.00 in0.0 mm
08:10 PM 28.4°F-2.0°C 19.2°F-7.1°C 68% 3.5 mph SSE5.6 kmh SSE 2.3 mph3.7 kmh 30.65 in1037.9 mb - 0.00 in0.0 mm 0.00 in0.0 mm
08:20 PM 28.2°F-2.1°C 19.3°F-7.1°C 69% 1.2 mph S1.9 kmh S 2.3 mph3.7 kmh 30.64 in1037.6 mb - 0.00 in0.0 mm 0.00 in0.0 mm
08:30 PM 27.9°F-2.3°C 19.4°F-7.0°C 70% 2.3 mph SE3.7 kmh SE 2.3 mph3.7 kmh 30.63 in1037.3 mb - 0.00 in0.0 mm 0.00 in0.0 mm
08:40 PM 27.7°F-2.4°C 19.5°F-6.9°C 71% 1.2 mph SE1.9 kmh SE 3.5 mph5.6 kmh 30.63 in1037.3 mb - 0.00 in0.0 mm 0.00 in0.0 mm
08:50 PM 27.7°F-2.4°C 19.5°F-6.9°C 71% 2.3 mph SE3.7 kmh SE 2.3 mph3.7 kmh 30.63 in1037.3 mb - 0.00 in0.0 mm 0.00 in0.0 mm
09:00 PM 27.6°F-2.4°C 19.4°F-7.0°C 71% 3.5 mph SSE5.6 kmh SSE 2.3 mph3.7 kmh 30.63 in1037.3 mb - 0.00 in0.0 mm 0.00 in0.0 mm
09:10 PM 27.5°F-2.5°C 19.7°F-6.8°C 72% 2.3 mph SW3.7 kmh SW 5.8 mph9.3 kmh 30.62 in1036.9 mb - 0.00 in0.0 mm 0.00 in0.0 mm
09:20 PM 27.3°F-2.6°C 19.5°F-6.9°C 72% 1.2 mph SW1.9 kmh SW 5.8 mph9.3 kmh 30.62 in1036.9 mb - 0.00 in0.0 mm 0.00 in0.0 mm
09:30 PM 27.1°F-2.7°C 19.3°F-7.1°C 72% 1.2 mph SW1.9 kmh SW 5.8 mph9.3 kmh 30.62 in1036.9 mb - 0.00 in0.0 mm 0.00 in0.0 mm
09:40 PM 26.9°F-2.8°C 19.4°F-7.0°C 73% 1.2 mph SW1.9 kmh SW -- 30.62 in1036.9 mb - 0.00 in0.0 mm 0.00 in0.0 mm
09:50 PM 26.6°F-3.0°C 19.4°F-7.0°C 74% Calm Calm -- 30.62 in1036.9 mb - 0.00 in0.0 mm 0.00 in0.0 mm
10:00 PM 26.4°F-3.1°C 19.2°F-7.1°C 74% 2.3 mph SSE3.7 kmh SSE 2.3 mph3.7 kmh 30.62 in1036.9 mb - 0.00 in0.0 mm 0.00 in0.0 mm
10:10 PM 26.4°F-3.1°C 19.6°F-6.9°C 75% 1.2 mph SE1.9 kmh SE 2.3 mph3.7 kmh 30.61 in1036.6 mb - 0.00 in0.0 mm 0.00 in0.0 mm
10:20 PM 26.2°F-3.2°C 19.4°F-7.0°C 75% 1.2 mph S1.9 kmh S 2.3 mph3.7 kmh 30.61 in1036.6 mb - 0.00 in0.0 mm 0.00 in0.0 mm
10:30 PM 25.9°F-3.4°C 19.4°F-7.0°C 76% 1.2 mph S1.9 kmh S 2.3 mph3.7 kmh 30.61 in1036.6 mb - 0.00 in0.0 mm 0.00 in0.0 mm
10:40 PM 25.8°F-3.4°C 19.3°F-7.1°C 76% Calm Calm -- 30.60 in1036.2 mb - 0.00 in0.0 mm 0.00 in0.0 mm
10:50 PM 25.6°F-3.6°C 19.4°F-7.0°C 77% Calm Calm 1.2 mph1.9 kmh 30.60 in1036.2 mb - 0.00 in0.0 mm 0.00 in0.0 mm
11:00 PM 25.4°F-3.7°C 19.5°F-6.9°C 78% Calm Calm -- 30.60 in1036.2 mb - 0.00 in0.0 mm 0.00 in0.0 mm
11:10 PM 24.9°F-3.9°C 19.0°F-7.2°C 78% Calm Calm -- 30.58 in1035.6 mb - 0.00 in0.0 mm 0.00 in0.0 mm
11:20 PM 24.5°F-4.2°C 19.2°F-7.1°C 80% Calm Calm 2.3 mph3.7 kmh 30.57 in1035.2 mb - 0.00 in0.0 mm 0.00 in0.0 mm
11:30 PM 24.3°F-4.3°C 19.3°F-7.1°C 81% Calm Calm -- 30.57 in1035.2 mb - 0.00 in0.0 mm 0.00 in0.0 mm
11:40 PM 24.2°F-4.3°C 19.2°F-7.1°C 81% 2.3 mph SW3.7 kmh SW 2.3 mph3.7 kmh 30.56 in1034.9 mb - 0.00 in0.0 mm 0.00 in0.0 mm
11:50 PM 24.4°F-4.2°C 19.4°F-7.0°C 81% 2.3 mph SSE3.7 kmh SSE 2.3 mph3.7 kmh 30.55 in1034.5 mb - 0.00 in0.0 mm 0.00 in0.0 mm